createdAt,value
2019-03-26T00:00:02.853Z,14.77
2019-03-26T00:02:35.148Z,13.13
2019-03-26T00:05:06.729Z,13.97
2019-03-26T00:07:38.060Z,14.73
2019-03-26T00:10:09.435Z,17.03
2019-03-26T00:12:40.675Z,13.90
2019-03-26T00:15:13.342Z,13.57
2019-03-26T00:17:44.636Z,16.83
2019-03-26T00:20:16.386Z,14.37
2019-03-26T00:22:48.043Z,13.30
2019-03-26T00:25:20.144Z,17.13
2019-03-26T00:27:51.405Z,11.40
2019-03-26T00:30:23.687Z,12.93
2019-03-26T00:32:55.031Z,17.37
2019-03-26T00:35:27.181Z,11.50
2019-03-26T00:37:59.384Z,19.30
2019-03-26T00:40:31.040Z,14.80
2019-03-26T00:43:03.722Z,18.17
2019-03-26T00:45:35.055Z,17.50
2019-03-26T00:48:06.320Z,16.27
2019-03-26T00:50:38.362Z,15.27
2019-03-26T00:53:09.819Z,12.37
2019-03-26T00:55:50.989Z,15.90
2019-03-26T00:58:22.334Z,14.87
2019-03-26T01:00:55.115Z,11.93
2019-03-26T01:03:26.479Z,14.73
2019-03-26T01:05:58.139Z,18.47
2019-03-26T01:08:31.276Z,19.60
2019-03-26T01:11:05.321Z,10.67
2019-03-26T01:13:41.305Z,13.40
2019-03-26T01:16:13.351Z,10.57
2019-03-26T01:18:45.214Z,12.53
2019-03-26T01:21:16.740Z,11.77
2019-03-26T01:23:48.030Z,15.07
2019-03-26T01:26:19.270Z,11.03
2019-03-26T01:28:50.517Z,12.53
2019-03-26T01:31:21.781Z,11.87
2019-03-26T01:33:53.846Z,13.00
2019-03-26T01:36:26.451Z,14.73
2019-03-26T01:38:58.413Z,13.97
2019-03-26T01:41:30.655Z,10.97
2019-03-26T01:44:02.519Z,9.07
2019-03-26T01:46:33.800Z,16.03
2019-03-26T01:49:05.115Z,13.10
2019-03-26T01:51:36.388Z,11.83
2019-03-26T01:54:07.639Z,13.60
2019-03-26T01:56:38.929Z,11.33
2019-03-26T01:59:10.221Z,16.67
2019-03-26T02:01:41.627Z,11.33
2019-03-26T02:04:16.051Z,14.43
2019-03-26T02:06:48.031Z,13.83
2019-03-26T02:09:19.271Z,11.67
2019-03-26T02:11:50.563Z,18.33
2019-03-26T02:14:22.299Z,14.17
2019-03-26T02:16:53.597Z,16.20
2019-03-26T02:19:25.458Z,15.03
2019-03-26T06:30:26.165Z,11.00
2019-03-26T06:32:57.441Z,12.03
2019-03-26T06:35:32.221Z,11.83
2019-03-26T06:38:03.818Z,7.77
2019-03-26T06:40:35.439Z,15.47
2019-03-26T06:43:08.522Z,13.70
2019-03-26T06:45:44.755Z,16.90
2019-03-26T06:48:16.402Z,8.83
2019-03-26T06:50:47.779Z,7.73
2019-03-26T06:53:20.315Z,8.70
2019-03-26T06:55:53.572Z,10.60
2019-03-26T06:58:25.889Z,14.17
2019-03-26T07:00:57.155Z,10.77
2019-03-26T07:03:28.366Z,8.93
2019-03-26T07:05:59.960Z,9.30
2019-03-26T07:08:31.270Z,18.47
2019-03-26T07:11:02.551Z,16.27
2019-03-26T07:13:34.854Z,13.83
2019-03-26T07:16:07.402Z,8.43
2019-03-26T07:18:40.530Z,11.87
2019-03-26T07:21:12.026Z,14.17
2019-03-26T07:23:43.539Z,13.00
2019-03-26T07:26:14.762Z,17.40
2019-03-26T07:28:47.142Z,9.83
2019-03-26T07:31:18.471Z,8.87
2019-03-26T07:33:49.725Z,7.00
2019-03-26T07:36:20.981Z,11.43
2019-03-26T07:38:52.619Z,12.97
2019-03-26T07:41:23.873Z,14.47
2019-03-26T07:43:55.056Z,8.67
2019-03-26T07:46:26.330Z,12.20
2019-03-26T07:48:57.557Z,10.80
2019-03-26T07:51:28.792Z,9.10
2019-03-26T07:54:03.206Z,12.13
2019-03-26T07:56:36.018Z,7.33
2019-03-26T07:59:08.724Z,8.03
2019-03-26T08:01:40.883Z,11.23
2019-03-26T08:04:12.695Z,10.03
2019-03-26T08:06:44.082Z,6.23
2019-03-26T08:09:15.352Z,10.93
2019-03-26T08:11:50.391Z,10.77
2019-03-26T08:14:24.150Z,13.70
2019-03-26T08:16:56.090Z,9.53
2019-03-26T08:19:29.050Z,6.70
2019-03-26T08:22:00.313Z,5.07
2019-03-26T08:24:34.313Z,5.43
2019-03-26T08:27:05.663Z,6.23
2019-03-26T08:29:36.912Z,12.07
2019-03-26T08:32:08.147Z,9.77
2019-03-26T08:34:39.401Z,7.70
2019-03-26T08:37:10.715Z,10.20
2019-03-26T08:39:41.996Z,8.27
2019-03-26T08:42:13.282Z,10.63
2019-03-26T08:44:44.579Z,10.03
2019-03-26T08:47:15.823Z,10.87
2019-03-26T08:49:47.030Z,9.87
2019-03-26T08:52:18.291Z,11.13
2019-03-26T08:54:49.543Z,10.23
2019-03-26T08:57:21.635Z,13.13
2019-03-26T08:59:54.262Z,9.30
2019-03-26T09:02:25.998Z,7.83
2019-03-26T09:04:57.471Z,9.77
2019-03-26T09:07:28.740Z,8.27
2019-03-26T09:10:00.062Z,12.00
2019-03-26T09:12:32.735Z,7.30
2019-03-26T09:15:05.427Z,13.63
2019-03-26T09:17:36.596Z,8.13
2019-03-26T09:20:10.935Z,5.70
2019-03-26T09:22:42.185Z,8.47
2019-03-26T09:25:14.116Z,7.80
2019-03-26T09:27:46.378Z,11.20
2019-03-26T09:30:18.816Z,8.17
2019-03-26T09:32:50.984Z,8.80
2019-03-26T09:35:23.689Z,5.60
2019-03-26T09:37:54.935Z,7.50
2019-03-26T09:40:26.331Z,5.23
2019-03-26T09:42:58.808Z,5.50
2019-03-26T09:45:32.318Z,6.57
2019-03-26T09:48:03.542Z,9.20
2019-03-26T09:50:36.772Z,8.27
2019-03-26T09:53:08.293Z,3.43
2019-03-26T09:55:39.573Z,8.40
2019-03-26T09:58:10.835Z,6.03
2019-03-26T10:00:42.169Z,3.77
2019-03-26T10:03:13.439Z,6.53
2019-03-26T10:05:45.830Z,6.50
2019-03-26T10:08:17.951Z,7.63
2019-03-26T10:10:50.481Z,12.30
2019-03-26T10:13:22.406Z,8.33
2019-03-26T10:15:53.632Z,8.33
2019-03-26T10:18:25.266Z,8.70
2019-03-26T10:20:56.506Z,7.30
2019-03-26T10:23:28.422Z,7.53
2019-03-26T10:25:59.687Z,4.83
2019-03-26T10:28:30.928Z,4.20
2019-03-26T10:31:02.318Z,8.17
2019-03-26T10:33:33.596Z,4.50
2019-03-26T10:36:05.197Z,5.93
2019-03-26T10:38:36.411Z,7.77
2019-03-26T10:41:08.033Z,5.33
2019-03-26T10:43:40.066Z,8.43
2019-03-26T10:46:11.345Z,5.50
2019-03-26T10:48:44.658Z,11.07
2019-03-26T10:51:15.884Z,6.93
2019-03-26T10:53:47.377Z,4.97
2019-03-26T10:56:19.622Z,4.43
2019-03-26T10:58:50.962Z,4.30
2019-03-26T11:01:25.072Z,10.53
2019-03-26T11:03:57.556Z,8.40
2019-03-26T11:06:30.238Z,7.73
2019-03-26T11:09:01.435Z,5.17
2019-03-26T11:11:34.852Z,8.73
2019-03-26T11:14:06.221Z,6.57
2019-03-26T11:16:37.464Z,7.20
2019-03-26T11:19:09.730Z,5.40
2019-03-26T11:21:41.214Z,6.87
2019-03-26T11:24:12.487Z,6.17
2019-03-26T11:26:44.052Z,8.17
2019-03-26T11:29:15.304Z,7.43
2019-03-26T11:31:46.565Z,5.13
2019-03-26T11:34:17.817Z,6.70
2019-03-26T11:36:49.095Z,4.53
2019-03-26T11:39:32.042Z,4.03
2019-03-26T11:41:53.365Z,5.93
2019-03-26T11:44:24.609Z,5.77
2019-03-26T11:46:55.847Z,4.47
2019-03-26T11:49:28.578Z,4.10
2019-03-26T11:51:59.891Z,2.73
2019-03-26T11:54:31.481Z,3.87
2019-03-26T11:57:02.749Z,5.17
2019-03-26T11:59:34.483Z,5.47
2019-03-26T12:02:08.021Z,6.50
2019-03-26T12:04:39.348Z,4.80
2019-03-26T12:07:12.395Z,4.17
2019-03-26T12:09:47.082Z,6.00
2019-03-26T12:12:18.369Z,3.87
2019-03-26T12:14:50.886Z,3.07
2019-03-26T12:17:22.320Z,5.53
2019-03-26T12:19:53.566Z,5.13
2019-03-26T12:22:24.883Z,5.30
2019-03-26T12:24:58.157Z,3.70
2019-03-26T12:27:29.499Z,5.33
2019-03-26T12:30:02.556Z,7.80
2019-03-26T12:32:35.739Z,6.00
2019-03-26T12:35:08.643Z,5.70
2019-03-26T12:37:41.355Z,9.67
2019-03-26T12:40:12.759Z,6.37
2019-03-26T12:42:44.008Z,6.57
2019-03-26T12:45:19.683Z,8.23
2019-03-26T12:47:50.949Z,5.77
2019-03-26T12:50:22.312Z,3.40
2019-03-26T12:52:53.673Z,2.63
2019-03-26T12:55:26.929Z,4.60
2019-03-26T12:58:00.345Z,3.80
2019-03-26T13:00:36.056Z,3.30
2019-03-26T13:03:07.299Z,2.77
2019-03-26T13:05:38.528Z,4.77
2019-03-26T13:08:09.777Z,3.07
2019-03-26T13:10:52.859Z,2.23
2019-03-26T13:13:15.441Z,2.40
2019-03-26T13:15:46.690Z,3.57
2019-03-26T13:18:18.149Z,4.60
2019-03-26T13:20:49.461Z,1.53
2019-03-26T13:23:21.251Z,2.73
2019-03-26T13:25:52.491Z,2.03
2019-03-26T13:28:23.776Z,1.70
2019-03-26T13:30:55.552Z,4.70
2019-03-26T13:33:27.047Z,3.80
2019-03-26T13:35:59.418Z,2.70
2019-03-26T13:38:30.840Z,3.83
2019-03-26T13:41:03.074Z,3.47
2019-03-26T13:43:34.271Z,2.33
2019-03-26T13:46:06.071Z,4.70
2019-03-26T13:48:39.988Z,2.23
2019-03-26T13:51:12.843Z,3.07
2019-03-26T13:53:44.110Z,5.63
2019-03-26T13:56:17.857Z,2.10
2019-03-26T13:58:49.110Z,3.07
2019-03-26T14:01:20.453Z,6.13
2019-03-26T14:03:51.682Z,4.17
2019-03-26T14:06:23.341Z,3.10
2019-03-26T14:08:54.544Z,3.67
2019-03-26T14:11:27.946Z,4.13
2019-03-26T14:13:59.639Z,5.93
2019-03-26T14:16:33.347Z,5.47
2019-03-26T14:19:04.681Z,3.03
2019-03-26T14:21:37.506Z,3.60
2019-03-26T14:24:08.748Z,5.17
2019-03-26T14:26:42.282Z,2.93
2019-03-26T14:29:13.614Z,3.67
2019-03-26T14:31:44.970Z,7.43
2019-03-26T14:34:18.791Z,3.43
2019-03-26T14:36:50.087Z,5.87
2019-03-26T14:39:21.289Z,6.13
2019-03-26T14:41:52.543Z,9.87
2019-03-26T14:44:23.765Z,6.30
2019-03-26T14:46:55.675Z,3.83
2019-03-26T14:49:26.924Z,4.50
2019-03-26T14:51:58.677Z,4.53
2019-03-26T14:54:31.777Z,4.20
2019-03-26T14:57:03.057Z,2.83
2019-03-26T14:59:34.987Z,3.30
2019-03-26T15:02:06.741Z,3.37
2019-03-26T15:04:37.991Z,3.70
2019-03-26T15:07:09.337Z,5.57
2019-03-26T15:09:42.729Z,5.87
2019-03-26T15:12:17.199Z,5.47
2019-03-26T15:14:49.773Z,5.63
2019-03-26T15:17:21.120Z,4.07
2019-03-26T15:19:54.974Z,4.87
2019-03-26T15:22:25.347Z,6.33
2019-03-26T15:24:59.365Z,5.57
2019-03-26T15:27:29.572Z,5.73
2019-03-26T15:30:01.542Z,4.77
2019-03-26T15:32:32.782Z,4.00
2019-03-26T15:35:04.848Z,6.63
2019-03-26T15:37:37.263Z,7.57
2019-03-26T15:40:11.464Z,5.23
2019-03-26T15:42:42.867Z,4.17
2019-03-26T15:45:15.150Z,5.70
2019-03-26T15:47:49.096Z,5.20
2019-03-26T15:50:41.184Z,5.13
2019-03-26T15:53:16.025Z,3.93
2019-03-26T15:55:48.999Z,4.20
2019-03-26T15:58:20.340Z,6.37
2019-03-26T16:00:52.729Z,3.60
2019-03-26T16:03:25.409Z,1.93
2019-03-26T16:05:57.484Z,5.77
2019-03-26T16:08:30.778Z,5.73
2019-03-26T16:11:02.049Z,11.10
2019-03-26T16:13:35.686Z,5.83
2019-03-26T16:16:06.582Z,19.83
2019-03-26T16:18:37.918Z,5.07
2019-03-26T16:21:09.119Z,2.17
2019-03-26T16:23:40.313Z,0.57
2019-03-26T16:26:11.550Z,1.40
2019-03-26T16:28:42.900Z,0.40
2019-03-26T16:31:14.234Z,0.97
2019-03-26T16:33:45.451Z,1.17
2019-03-26T16:36:19.019Z,1.13
2019-03-26T16:38:52.507Z,0.60
2019-03-26T16:41:26.387Z,2.13
2019-03-26T16:43:58.279Z,7.73
2019-03-26T16:46:30.937Z,5.97
2019-03-26T16:49:02.490Z,3.70
2019-03-26T16:51:33.730Z,6.10
2019-03-26T16:54:05.006Z,4.63
2019-03-26T16:56:36.292Z,3.27
2019-03-26T16:59:07.754Z,2.27
2019-03-26T17:01:39.051Z,1.70
2019-03-26T17:04:10.302Z,0.93
2019-03-26T17:06:42.334Z,1.87
2019-03-26T17:09:14.137Z,2.93
2019-03-26T17:11:45.411Z,2.20
2019-03-26T17:14:17.520Z,2.73
2019-03-26T17:16:49.078Z,1.20
2019-03-26T17:19:20.330Z,2.13
2019-03-26T17:21:54.168Z,2.00
2019-03-26T17:24:26.745Z,1.63
2019-03-26T17:26:57.950Z,2.10
2019-03-26T17:29:30.259Z,2.83
2019-03-26T17:32:01.486Z,4.07
2019-03-26T17:34:33.418Z,4.37
2019-03-26T17:37:05.492Z,4.93
2019-03-26T17:39:37.134Z,3.67
2019-03-26T17:42:16.937Z,5.37
2019-03-26T17:44:42.368Z,4.60
2019-03-26T17:47:13.936Z,6.73
2019-03-26T17:49:45.203Z,6.77
2019-03-26T17:52:16.724Z,6.53
2019-03-26T17:54:48.143Z,8.27
2019-03-26T17:57:19.375Z,8.00
2019-03-26T17:59:50.629Z,7.37
2019-03-26T18:02:21.845Z,9.10
2019-03-26T18:04:53.805Z,9.13
2019-03-26T18:07:26.926Z,8.30
2019-03-26T18:09:58.164Z,8.47
2019-03-26T18:12:31.018Z,10.30
2019-03-26T18:15:02.616Z,8.40
2019-03-26T18:17:34.318Z,7.87
2019-03-26T18:20:06.026Z,8.43
2019-03-26T18:22:37.711Z,5.60
2019-03-26T18:25:10.343Z,5.17
2019-03-26T18:27:42.475Z,4.63
2019-03-26T18:30:14.828Z,4.03
2019-03-26T18:32:46.079Z,3.30
2019-03-26T18:35:17.318Z,5.10
2019-03-26T18:37:49.155Z,3.20
2019-03-26T18:40:20.493Z,3.13
2019-03-26T18:42:51.727Z,3.70
2019-03-26T18:45:23.728Z,2.87
2019-03-26T18:47:56.101Z,4.23
2019-03-26T18:50:31.427Z,2.67
2019-03-26T18:53:04.604Z,3.83
2019-03-26T18:55:35.889Z,4.03
2019-03-26T18:58:07.404Z,4.30
2019-03-26T19:00:39.928Z,3.13
2019-03-26T19:03:12.555Z,6.63
2019-03-26T19:05:43.773Z,4.50
2019-03-26T19:08:15.338Z,4.37
2019-03-26T19:10:47.394Z,5.93
2019-03-26T19:13:20.159Z,8.93
2019-03-26T19:15:52.635Z,9.37
2019-03-26T19:18:24.329Z,8.07
2019-03-26T19:21:02.067Z,8.60
2019-03-26T19:23:29.927Z,7.27
2019-03-26T19:26:01.509Z,8.67
2019-03-26T19:28:32.791Z,9.10
2019-03-26T19:31:04.997Z,9.73
2019-03-26T19:33:36.251Z,8.50
2019-03-26T19:36:10.830Z,11.00
2019-03-26T19:38:43.038Z,9.93
2019-03-26T19:41:15.533Z,10.73
2019-03-26T19:43:48.462Z,9.43
2019-03-26T19:46:19.965Z,13.30
2019-03-26T19:48:51.436Z,16.17
2019-03-26T19:51:23.630Z,14.97
2019-03-26T19:53:58.089Z,13.83
2019-03-26T19:56:34.475Z,13.17
2019-03-26T19:59:06.183Z,14.67
2019-03-26T20:01:38.306Z,14.37
2019-03-26T20:04:09.760Z,16.87
2019-03-26T20:06:41.098Z,10.83
2019-03-26T20:09:17.669Z,17.40
2019-03-26T20:11:49.381Z,12.30
2019-03-26T20:14:23.349Z,19.37
2019-03-26T20:16:55.481Z,18.67
2019-03-26T20:19:28.145Z,13.43
2019-03-26T20:22:00.223Z,16.67
2019-03-26T20:24:36.114Z,23.43
2019-03-26T20:27:08.640Z,18.00
2019-03-26T20:29:41.046Z,15.03
2019-03-26T20:32:12.648Z,16.77
2019-03-26T20:34:44.444Z,15.20
2019-03-26T20:37:16.884Z,19.73
2019-03-26T20:39:49.785Z,14.97
2019-03-26T20:42:23.103Z,16.90
2019-03-26T20:44:56.899Z,16.10
2019-03-26T20:47:30.186Z,17.70
2019-03-26T20:50:03.117Z,12.50
2019-03-26T20:52:34.939Z,16.20
2019-03-26T20:55:08.942Z,19.33
2019-03-26T20:57:42.630Z,17.63
2019-03-26T21:00:17.681Z,16.23
2019-03-26T21:02:50.473Z,14.93
2019-03-26T21:05:22.951Z,19.17
2019-03-26T21:07:54.836Z,17.63
2019-03-26T21:10:26.193Z,16.30
2019-03-26T21:12:57.522Z,18.20
2019-03-26T21:15:29.704Z,16.67
2019-03-26T21:18:01.699Z,17.63
2019-03-26T21:20:33.032Z,15.60
2019-03-26T21:23:04.384Z,13.80
2019-03-26T21:25:36.570Z,23.87
2019-03-26T21:28:11.318Z,22.67
2019-03-26T21:30:42.620Z,17.27
2019-03-26T21:33:14.106Z,16.60
2019-03-26T21:35:47.732Z,17.27
2019-03-26T21:38:19.384Z,18.73
2019-03-26T21:40:51.192Z,16.13
2019-03-26T21:43:23.133Z,21.43
2019-03-26T21:45:54.374Z,21.77
2019-03-26T21:48:26.614Z,16.33
2019-03-26T21:50:58.077Z,26.13
2019-03-26T21:53:29.597Z,20.77
2019-03-26T21:56:06.837Z,16.77
2019-03-26T21:58:35.999Z,20.60
2019-03-26T22:01:07.260Z,17.13
2019-03-26T22:03:38.859Z,14.27
2019-03-26T22:06:10.430Z,17.87
2019-03-26T22:08:42.200Z,18.60
2019-03-26T22:11:13.547Z,16.60
2019-03-26T22:13:45.076Z,19.53
2019-03-26T22:16:16.686Z,22.40
2019-03-26T22:18:49.152Z,18.67
2019-03-26T22:21:20.396Z,16.53
2019-03-26T22:23:52.225Z,17.47
2019-03-26T22:26:24.346Z,16.17
2019-03-26T22:28:55.878Z,18.00
2019-03-26T22:31:28.155Z,17.33
2019-03-26T22:34:00.994Z,14.60
2019-03-26T22:36:34.961Z,23.30
2019-03-26T22:39:07.760Z,20.07
2019-03-26T22:41:39.445Z,18.77
2019-03-26T22:44:10.839Z,21.17
2019-03-26T22:46:42.061Z,15.57
2019-03-26T22:49:13.306Z,17.43
2019-03-26T22:51:44.567Z,20.13
2019-03-26T22:54:15.837Z,15.83
2019-03-26T22:56:47.028Z,13.60
2019-03-26T22:59:18.261Z,14.87
2019-03-26T23:01:49.478Z,13.07
2019-03-26T23:04:20.708Z,12.70
2019-03-26T23:06:53.009Z,16.63
2019-03-26T23:09:25.453Z,14.43
2019-03-26T23:11:56.672Z,13.47
2019-03-26T23:14:29.865Z,15.43
2019-03-26T23:17:01.178Z,15.50
2019-03-26T23:19:33.164Z,12.90
2019-03-26T23:22:06.337Z,13.63
2019-03-26T23:24:43.110Z,9.17
2019-03-26T23:27:15.591Z,9.37
2019-03-26T23:29:47.263Z,11.27
2019-03-26T23:32:19.579Z,10.70
2019-03-26T23:34:52.405Z,12.47
2019-03-26T23:37:24.723Z,11.03
2019-03-26T23:39:57.441Z,13.27
2019-03-26T23:42:30.557Z,13.87
2019-03-26T23:45:02.251Z,14.57
2019-03-26T23:59:10.008Z,11.40
